createdAt,value
2018-11-07T00:00:34.231Z,81.48
2018-11-07T00:01:34.180Z,81.58
2018-11-07T00:02:34.118Z,81.67
2018-11-07T00:03:34.062Z,81.67
2018-11-07T00:04:34.005Z,81.58
2018-11-07T00:05:33.956Z,81.77
2018-11-07T00:06:33.896Z,81.29
2018-11-07T00:07:33.836Z,81.48
2018-11-07T00:08:33.876Z,81.48
2018-11-07T00:09:33.727Z,81.77
2018-11-07T00:10:33.673Z,81.38
2018-11-07T00:11:33.611Z,81.58
2018-11-07T00:12:33.555Z,81.48
2018-11-07T00:13:33.502Z,81.58
2018-11-07T00:14:33.440Z,81.48
2018-11-07T00:15:33.384Z,81.29
2018-11-07T00:16:33.328Z,81.29
2018-11-07T00:17:33.273Z,81.67
2018-11-07T00:18:33.219Z,81.38
2018-11-07T00:19:33.222Z,81.48
2018-11-07T00:20:33.103Z,81.67
2018-11-07T00:21:33.048Z,81.38
2018-11-07T00:22:32.994Z,81.67
2018-11-07T00:23:32.938Z,81.67
2018-11-07T00:24:32.878Z,81.67
2018-11-07T00:25:32.828Z,81.77
2018-11-07T00:26:32.889Z,81.67
2018-11-07T00:27:32.709Z,81.38
2018-11-07T00:28:32.653Z,81.67
2018-11-07T00:29:32.594Z,81.38
2018-11-07T00:30:32.542Z,81.38
2018-11-07T00:31:32.487Z,81.20
2018-11-07T00:32:32.426Z,81.67
2018-11-07T00:33:32.372Z,81.58
2018-11-07T00:34:32.312Z,81.29
2018-11-07T00:35:32.257Z,81.77
2018-11-07T00:36:32.204Z,81.67
2018-11-07T00:37:32.142Z,81.58
2018-11-07T00:38:32.086Z,81.48
2018-11-07T00:39:32.034Z,81.58
2018-11-07T00:40:31.975Z,81.38
2018-11-07T00:41:31.916Z,81.67
2018-11-07T00:42:31.863Z,81.77
2018-11-07T00:43:31.809Z,81.29
2018-11-07T00:44:31.748Z,81.38
2018-11-07T00:45:31.692Z,81.58
2018-11-07T00:46:31.636Z,81.58
2018-11-07T00:47:31.579Z,81.58
2018-11-07T00:48:31.523Z,81.58
2018-11-07T00:49:31.466Z,81.77
2018-11-07T00:50:31.408Z,81.77
2018-11-07T00:51:31.356Z,81.48
2018-11-07T00:52:31.298Z,81.77
2018-11-07T00:53:31.250Z,81.58
2018-11-07T00:54:31.193Z,81.58
2018-11-07T00:55:31.127Z,81.58
2018-11-07T00:56:31.073Z,81.38
2018-11-07T00:57:31.015Z,81.58
2018-11-07T00:58:30.963Z,81.58
2018-11-07T00:59:30.900Z,81.58
2018-11-07T01:00:30.849Z,81.48
2018-11-07T01:01:30.787Z,81.67
2018-11-07T01:02:30.733Z,81.58
2018-11-07T01:03:30.677Z,81.58
2018-11-07T01:04:30.618Z,81.29
2018-11-07T01:05:30.560Z,81.38
2018-11-07T01:06:30.505Z,81.58
2018-11-07T01:07:30.447Z,81.29
2018-11-07T01:08:30.392Z,81.67
2018-11-07T01:09:30.394Z,81.67
2018-11-07T01:10:30.279Z,81.48
2018-11-07T01:11:30.227Z,81.58
2018-11-07T01:12:30.167Z,81.38
2018-11-07T01:13:30.111Z,81.38
2018-11-07T01:14:30.052Z,81.77
2018-11-07T01:15:30.001Z,81.77
2018-11-07T01:16:29.981Z,81.67
2018-11-07T01:17:29.883Z,81.20
2018-11-07T01:18:29.827Z,81.77
2018-11-07T01:19:29.775Z,81.48
2018-11-07T01:20:29.716Z,81.01
2018-11-07T01:21:29.658Z,81.10
2018-11-07T01:22:29.604Z,81.10
2018-11-07T01:23:29.545Z,80.91
2018-11-07T01:24:29.489Z,81.38
2018-11-07T01:25:29.432Z,81.38
2018-11-07T01:26:29.375Z,81.38
2018-11-07T01:27:29.320Z,81.48
2018-11-07T01:28:29.266Z,81.48
2018-11-07T01:29:29.205Z,81.38
2018-11-07T01:30:29.149Z,81.38
2018-11-07T01:31:29.094Z,81.58
2018-11-07T01:32:29.036Z,81.48
2018-11-07T01:33:28.981Z,81.48
2018-11-07T01:34:28.926Z,81.29
2018-11-07T01:35:28.867Z,81.58
2018-11-07T01:36:28.810Z,80.91
2018-11-07T01:37:28.754Z,81.38
2018-11-07T01:38:28.697Z,81.38
2018-11-07T01:39:28.641Z,81.38
2018-11-07T01:40:28.587Z,81.48
2018-11-07T01:41:28.526Z,80.62
2018-11-07T01:42:28.471Z,81.48
2018-11-07T01:43:28.415Z,81.01
2018-11-07T01:44:28.360Z,81.38
2018-11-07T01:45:28.300Z,81.38
2018-11-07T01:46:28.244Z,81.01
2018-11-07T01:47:28.190Z,81.01
2018-11-07T01:48:28.132Z,80.72
2018-11-07T01:49:28.074Z,81.01
2018-11-07T01:50:28.019Z,80.53
2018-11-07T01:51:27.962Z,80.33
2018-11-07T01:52:27.909Z,80.62
2018-11-07T01:53:27.849Z,80.72
2018-11-07T01:54:27.791Z,80.91
2018-11-07T01:55:27.738Z,80.72
2018-11-07T01:56:27.679Z,80.72
2018-11-07T01:57:27.622Z,80.62
2018-11-07T01:58:27.567Z,80.53
2018-11-07T01:59:27.510Z,80.72
2018-11-07T02:00:27.456Z,80.53
2018-11-07T02:01:27.397Z,80.72
2018-11-07T02:02:27.340Z,80.53
2018-11-07T02:03:27.285Z,80.81
2018-11-07T02:04:27.227Z,80.81
2018-11-07T02:05:27.169Z,80.62
2018-11-07T02:06:27.116Z,80.72
2018-11-07T02:07:27.058Z,80.81
2018-11-07T02:08:27.003Z,80.62
2018-11-07T02:09:26.943Z,80.81
2018-11-07T02:10:26.887Z,80.43
2018-11-07T02:11:26.831Z,80.53
2018-11-07T02:12:26.776Z,80.43
2018-11-07T02:13:26.719Z,80.24
2018-11-07T02:14:26.660Z,80.33
2018-11-07T02:15:26.604Z,80.43
2018-11-07T02:16:26.550Z,80.15
2018-11-07T02:17:26.490Z,80.33
2018-11-07T02:18:26.434Z,80.33
2018-11-07T02:19:26.377Z,80.24
2018-11-07T02:20:26.322Z,80.62
2018-11-07T02:21:26.265Z,80.24
2018-11-07T02:22:26.208Z,80.33
2018-11-07T02:23:26.153Z,80.53
2018-11-07T02:24:26.095Z,80.53
2018-11-07T02:25:26.037Z,80.62
2018-11-07T02:26:26.009Z,80.53
2018-11-07T02:27:25.926Z,80.53
2018-11-07T02:28:25.869Z,80.53
2018-11-07T02:29:25.812Z,80.43
2018-11-07T02:30:25.756Z,80.33
2018-11-07T02:31:25.699Z,80.33
2018-11-07T02:32:25.643Z,80.62
2018-11-07T02:33:25.586Z,80.33
2018-11-07T02:34:25.530Z,80.53
2018-11-07T02:35:25.472Z,80.33
2018-11-07T02:36:25.417Z,80.33
2018-11-07T02:37:25.358Z,80.43
2018-11-07T02:38:25.303Z,80.33
2018-11-07T02:39:25.252Z,80.72
2018-11-07T02:40:25.189Z,80.72
2018-11-07T02:41:25.131Z,80.33
2018-11-07T02:42:25.075Z,80.15
2018-11-07T02:43:25.019Z,80.72
2018-11-07T02:44:24.965Z,80.05
2018-11-07T02:45:24.907Z,80.05
2018-11-07T02:46:24.849Z,80.05
2018-11-07T02:47:24.792Z,79.96
2018-11-07T02:48:24.738Z,80.05
2018-11-07T02:49:24.678Z,80.72
2018-11-07T02:50:24.625Z,80.05
2018-11-07T02:51:24.567Z,80.15
2018-11-07T02:52:24.510Z,79.96
2018-11-07T02:53:24.490Z,79.96
2018-11-07T02:54:24.398Z,79.86
2018-11-07T02:55:24.340Z,80.05
2018-11-07T02:56:24.288Z,79.96
2018-11-07T02:57:24.225Z,79.96
2018-11-07T02:58:24.173Z,80.15
2018-11-07T02:59:24.115Z,80.05
2018-11-07T03:00:24.056Z,79.86
2018-11-07T03:01:24.059Z,80.05
2018-11-07T03:02:23.943Z,80.05
2018-11-07T03:03:23.885Z,80.05
2018-11-07T03:04:23.832Z,80.05
2018-11-07T03:05:23.773Z,80.05
2018-11-07T03:06:23.719Z,80.24
2018-11-07T03:07:23.661Z,80.05
2018-11-07T03:08:23.611Z,80.15
2018-11-07T03:09:23.546Z,80.05
2018-11-07T03:10:23.537Z,80.33
2018-11-07T03:11:23.432Z,79.57
2018-11-07T03:12:23.377Z,79.77
2018-11-07T03:13:23.320Z,79.28
2018-11-07T03:14:23.265Z,79.67
2018-11-07T03:15:23.210Z,79.38
2018-11-07T03:16:23.150Z,79.77
2018-11-07T03:17:23.092Z,79.67
2018-11-07T03:18:23.036Z,79.67
2018-11-07T03:19:22.980Z,79.77
2018-11-07T03:20:22.924Z,79.86
2018-11-07T03:21:22.865Z,79.86
2018-11-07T03:22:22.812Z,79.86
2018-11-07T03:23:22.752Z,79.86
2018-11-07T03:24:22.697Z,79.77
2018-11-07T03:25:22.639Z,79.57
2018-11-07T03:26:22.584Z,79.63
2018-11-07T03:27:22.527Z,79.38
2018-11-07T03:28:22.473Z,79.57
2018-11-07T03:29:22.415Z,79.77
2018-11-07T03:30:22.355Z,79.00
2018-11-07T03:31:22.300Z,79.10
2018-11-07T03:32:22.250Z,79.15
2018-11-07T03:33:22.185Z,79.10
2018-11-07T03:34:22.130Z,79.19
2018-11-07T03:35:22.072Z,79.48
2018-11-07T03:36:22.018Z,79.19
2018-11-07T03:37:21.958Z,79.25
2018-11-07T03:38:21.901Z,79.06
2018-11-07T03:39:21.845Z,78.91
2018-11-07T03:40:21.795Z,78.77
2018-11-07T03:41:21.732Z,78.77
2018-11-07T03:42:21.675Z,78.72
2018-11-07T03:43:21.621Z,78.81
2018-11-07T03:44:21.563Z,78.77
2018-11-07T03:45:21.505Z,78.86
2018-11-07T03:46:21.451Z,78.77
2018-11-07T03:47:21.392Z,78.67
2018-11-07T03:48:21.339Z,78.81
2018-11-07T03:49:21.278Z,78.86
2018-11-07T03:50:21.227Z,78.86
2018-11-07T03:51:21.166Z,78.86
2018-11-07T03:52:21.108Z,78.81
2018-11-07T03:53:21.127Z,78.67
2018-11-07T03:54:20.997Z,78.67
2018-11-07T03:55:20.938Z,78.58
2018-11-07T03:56:20.883Z,78.81
2018-11-07T03:57:20.825Z,78.86
2018-11-07T03:58:20.773Z,78.86
2018-11-07T03:59:20.716Z,78.86
2018-11-07T04:00:20.655Z,79.06
2018-11-07T04:01:20.597Z,78.91
2018-11-07T04:02:20.546Z,78.96
2018-11-07T04:03:20.489Z,79.06
2018-11-07T04:04:20.432Z,78.81
2018-11-07T04:05:20.369Z,78.86
2018-11-07T04:06:20.320Z,79.19
2018-11-07T04:07:20.262Z,79.15
2018-11-07T04:08:20.210Z,78.77
2018-11-07T04:09:20.153Z,79.06
2018-11-07T04:10:20.091Z,78.96
2018-11-07T04:11:20.037Z,78.77
2018-11-07T04:12:19.978Z,78.96
2018-11-07T04:13:19.928Z,78.96
2018-11-07T04:14:19.864Z,78.96
2018-11-07T04:15:19.808Z,78.96
2018-11-07T04:16:19.752Z,78.96
2018-11-07T04:17:20.646Z,78.96
2018-11-07T04:18:19.636Z,79.15
2018-11-07T04:19:19.582Z,78.77
2018-11-07T04:20:19.519Z,79.35
2018-11-07T04:21:19.465Z,79.15
2018-11-07T04:22:19.411Z,79.06
2018-11-07T04:23:19.354Z,79.06
2018-11-07T04:24:19.297Z,78.77
2018-11-07T04:25:19.241Z,78.96
2018-11-07T04:26:19.188Z,78.86
2018-11-07T04:27:19.135Z,79.15
2018-11-07T04:28:19.069Z,78.96
2018-11-07T04:29:19.014Z,78.86
2018-11-07T04:30:18.959Z,78.86
2018-11-07T04:31:18.897Z,78.67
2018-11-07T04:32:18.841Z,78.67
2018-11-07T04:33:18.785Z,78.67
2018-11-07T04:34:18.727Z,78.67
2018-11-07T04:35:18.671Z,78.86
2018-11-07T04:36:18.616Z,78.77
2018-11-07T04:37:18.556Z,78.58
2018-11-07T04:38:18.502Z,78.39
2018-11-07T04:39:18.500Z,78.39
2018-11-07T04:40:18.386Z,78.30
2018-11-07T04:41:18.330Z,78.58
2018-11-07T04:42:18.275Z,78.30
2018-11-07T04:43:18.218Z,78.20
2018-11-07T04:44:18.160Z,78.58
2018-11-07T04:45:18.102Z,78.39
2018-11-07T04:46:18.045Z,78.39
2018-11-07T04:47:17.991Z,78.20
2018-11-07T04:48:17.939Z,78.49
2018-11-07T04:49:17.873Z,78.39
2018-11-07T04:50:17.822Z,78.58
2018-11-07T04:51:17.760Z,78.10
2018-11-07T04:52:17.706Z,78.20
2018-11-07T04:53:17.646Z,78.10
2018-11-07T04:54:17.594Z,77.91
2018-11-07T04:55:17.536Z,78.30
2018-11-07T04:56:17.477Z,77.53
2018-11-07T04:57:17.421Z,78.30
2018-11-07T04:58:17.363Z,77.53
2018-11-07T04:59:17.305Z,78.20
2018-11-07T05:00:17.304Z,78.10
2018-11-07T05:01:17.195Z,78.30
2018-11-07T05:02:17.136Z,77.53
2018-11-07T05:03:17.078Z,77.91
2018-11-07T05:04:17.022Z,77.53
2018-11-07T05:05:16.967Z,77.72
2018-11-07T05:06:16.910Z,77.82
2018-11-07T05:07:16.855Z,77.72
2018-11-07T05:08:16.795Z,77.53
2018-11-07T05:09:16.737Z,77.25
2018-11-07T05:10:16.680Z,77.62
2018-11-07T05:11:16.626Z,77.62
2018-11-07T05:12:16.567Z,77.72
2018-11-07T05:13:16.512Z,77.44
2018-11-07T05:14:16.455Z,77.53
2018-11-07T05:15:16.397Z,77.62
2018-11-07T05:16:16.340Z,77.72
2018-11-07T05:17:16.281Z,77.53
2018-11-07T05:18:16.224Z,77.82
2018-11-07T05:19:16.167Z,77.06
2018-11-07T05:20:16.113Z,77.25
2018-11-07T05:21:16.057Z,77.34
2018-11-07T05:22:15.998Z,77.44
2018-11-07T05:23:15.952Z,77.34
2018-11-07T05:24:15.884Z,77.25
2018-11-07T05:25:15.828Z,77.25
2018-11-07T05:26:15.863Z,77.25
2018-11-07T05:27:15.719Z,77.25
2018-11-07T05:28:15.657Z,77.34
2018-11-07T05:29:15.630Z,77.25
2018-11-07T05:30:15.544Z,77.25
2018-11-07T05:31:15.484Z,77.34
2018-11-07T05:32:15.427Z,77.25
2018-11-07T05:33:15.384Z,77.34
2018-11-07T05:34:15.314Z,77.25
2018-11-07T05:35:15.259Z,77.15
2018-11-07T05:36:15.200Z,77.06
2018-11-07T05:37:15.143Z,77.15
2018-11-07T05:38:15.085Z,77.34
2018-11-07T05:39:15.030Z,76.86
2018-11-07T05:40:14.978Z,77.15
2018-11-07T05:41:14.994Z,77.15
2018-11-07T05:42:14.860Z,76.86
2018-11-07T05:43:14.805Z,76.77
2018-11-07T05:44:14.745Z,77.15
2018-11-07T05:45:14.689Z,77.34
2018-11-07T05:46:14.635Z,77.15
2018-11-07T05:47:14.575Z,77.25
2018-11-07T05:48:14.517Z,77.15
2018-11-07T05:49:14.523Z,77.25
2018-11-07T05:50:14.401Z,77.15
2018-11-07T05:51:14.346Z,77.34
2018-11-07T05:52:14.285Z,77.15
2018-11-07T05:53:14.240Z,76.77
2018-11-07T05:54:14.174Z,76.29
2018-11-07T05:55:14.120Z,76.39
2018-11-07T05:56:14.062Z,76.77
2018-11-07T05:57:14.000Z,76.29
2018-11-07T05:58:13.946Z,76.86
2018-11-07T05:59:13.896Z,76.77
2018-11-07T06:00:13.832Z,76.57
2018-11-07T06:01:13.774Z,76.77
2018-11-07T06:02:13.717Z,76.20
2018-11-07T06:03:13.662Z,76.48
2018-11-07T06:04:13.606Z,76.77
2018-11-07T06:05:13.546Z,76.77
2018-11-07T06:06:13.491Z,76.77
2018-11-07T06:07:13.469Z,76.39
2018-11-07T06:08:13.377Z,76.77
2018-11-07T06:09:13.319Z,76.67
2018-11-07T06:10:13.261Z,76.39
2018-11-07T06:11:13.205Z,76.57
2018-11-07T06:12:13.147Z,76.39
2018-11-07T06:13:13.091Z,76.29
2018-11-07T06:14:13.038Z,76.67
2018-11-07T06:15:12.978Z,76.39
2018-11-07T06:16:12.981Z,76.77
2018-11-07T06:17:12.862Z,76.39
2018-11-07T06:18:12.811Z,76.67
2018-11-07T06:19:12.750Z,76.57
2018-11-07T06:20:12.697Z,76.39
2018-11-07T06:21:12.635Z,76.48
2018-11-07T06:22:12.578Z,76.29
2018-11-07T06:23:12.521Z,76.29
2018-11-07T06:24:12.482Z,76.67
2018-11-07T06:25:12.408Z,76.48
2018-11-07T06:26:12.349Z,76.39
2018-11-07T06:27:12.294Z,76.48
2018-11-07T06:28:12.235Z,76.29
2018-11-07T06:29:12.186Z,76.39
2018-11-07T06:30:12.125Z,76.01
2018-11-07T06:31:12.064Z,76.20
2018-11-07T06:32:12.009Z,76.39
2018-11-07T06:33:11.950Z,75.91
2018-11-07T06:34:11.927Z,76.39
2018-11-07T06:35:11.839Z,75.91
2018-11-07T06:36:11.780Z,76.01
2018-11-07T06:37:11.721Z,75.91
2018-11-07T06:38:11.665Z,75.81
2018-11-07T06:39:11.607Z,75.81
2018-11-07T06:40:11.554Z,75.91
2018-11-07T06:41:11.498Z,76.29
2018-11-07T06:42:11.489Z,76.01
2018-11-07T06:43:11.379Z,76.01
2018-11-07T06:44:11.322Z,76.20
2018-11-07T06:45:11.268Z,76.01
2018-11-07T06:46:11.213Z,75.91
2018-11-07T06:47:11.155Z,76.10
2018-11-07T06:48:11.092Z,76.20
2018-11-07T06:49:11.041Z,76.20
2018-11-07T06:50:10.980Z,75.91
2018-11-07T06:51:10.921Z,76.20
2018-11-07T06:52:10.866Z,76.20
2018-11-07T06:53:10.815Z,76.20
2018-11-07T06:54:10.752Z,76.10
2018-11-07T06:55:10.716Z,76.20
2018-11-07T06:56:10.638Z,76.10
2018-11-07T06:57:10.578Z,76.10
2018-11-07T06:58:10.522Z,76.10
2018-11-07T06:59:10.467Z,76.29
2018-11-07T07:00:10.410Z,75.91
2018-11-07T07:01:10.356Z,75.91
2018-11-07T07:02:10.300Z,76.29
2018-11-07T07:03:10.239Z,76.01
2018-11-07T07:04:10.182Z,76.10
2018-11-07T07:05:10.125Z,75.91
2018-11-07T07:06:10.065Z,76.39
2018-11-07T07:07:10.009Z,75.91
2018-11-07T07:08:09.951Z,76.10
2018-11-07T07:09:09.893Z,76.10
2018-11-07T07:10:09.837Z,76.20
2018-11-07T07:11:09.780Z,76.20
2018-11-07T07:12:09.727Z,75.53
2018-11-07T07:13:09.664Z,75.91
2018-11-07T07:14:09.609Z,75.91
2018-11-07T07:15:09.564Z,75.43
2018-11-07T07:16:09.501Z,75.62
2018-11-07T07:17:09.445Z,75.72
2018-11-07T07:18:09.524Z,75.72
2018-11-07T07:19:09.322Z,75.72
2018-11-07T07:20:09.276Z,75.53
2018-11-07T07:21:09.207Z,75.53
2018-11-07T07:22:09.150Z,75.43
2018-11-07T07:23:09.095Z,75.81
2018-11-07T07:24:09.038Z,75.43
2018-11-07T07:25:08.978Z,75.53
2018-11-07T07:26:08.925Z,75.53
2018-11-07T07:27:08.873Z,75.62
2018-11-07T07:28:08.807Z,75.81
2018-11-07T07:29:08.757Z,76.01
2018-11-07T07:30:08.713Z,75.72
2018-11-07T07:31:08.637Z,75.62
2018-11-07T07:32:08.580Z,75.62
2018-11-07T07:33:08.576Z,75.24
2018-11-07T07:34:08.463Z,76.01
2018-11-07T07:35:08.413Z,75.62
2018-11-07T07:36:08.350Z,75.62
2018-11-07T07:37:08.296Z,75.81
2018-11-07T07:38:08.237Z,75.62
2018-11-07T07:39:08.181Z,75.62
2018-11-07T07:40:08.123Z,75.72
2018-11-07T07:41:08.068Z,75.72
2018-11-07T07:42:08.010Z,75.62
2018-11-07T07:43:07.950Z,75.91
2018-11-07T07:44:07.893Z,75.81
2018-11-07T07:45:07.839Z,75.81
2018-11-07T07:46:07.779Z,75.62
2018-11-07T07:47:07.722Z,75.72
2018-11-07T07:48:07.670Z,75.81
2018-11-07T07:49:07.620Z,75.81
2018-11-07T07:50:07.551Z,75.62
2018-11-07T07:51:07.493Z,75.53
2018-11-07T07:52:07.435Z,75.72
2018-11-07T07:53:07.448Z,75.53
2018-11-07T07:54:07.323Z,75.62
2018-11-07T07:55:07.264Z,75.72
2018-11-07T07:56:07.206Z,75.62
2018-11-07T07:57:07.151Z,75.72
2018-11-07T07:58:07.093Z,75.72
2018-11-07T07:59:07.035Z,75.72
2018-11-07T08:00:06.989Z,75.81
2018-11-07T08:01:06.920Z,75.81
2018-11-07T08:02:06.860Z,75.53
2018-11-07T08:03:06.808Z,75.81
2018-11-07T08:04:06.744Z,76.20
2018-11-07T08:05:06.689Z,76.39
2018-11-07T08:06:06.631Z,76.01
2018-11-07T08:07:06.603Z,76.01
2018-11-07T08:08:06.518Z,76.10
2018-11-07T08:09:06.462Z,76.20
2018-11-07T08:10:06.400Z,75.91
2018-11-07T08:11:06.346Z,75.91
2018-11-07T08:12:06.286Z,75.72
2018-11-07T08:13:06.228Z,75.81
2018-11-07T08:14:06.240Z,76.20
2018-11-07T08:15:06.114Z,76.57
2018-11-07T08:16:06.057Z,76.77
2018-11-07T08:17:06.001Z,76.39
2018-11-07T08:18:05.942Z,76.39
2018-11-07T08:19:05.885Z,76.39
2018-11-07T08:20:05.828Z,76.57
2018-11-07T08:21:05.820Z,76.86
2018-11-07T08:22:05.713Z,76.48
2018-11-07T08:23:05.656Z,76.57
2018-11-07T08:24:05.600Z,76.96
2018-11-07T08:25:05.552Z,76.77
2018-11-07T08:26:05.484Z,77.25
2018-11-07T08:27:05.427Z,77.15
2018-11-07T08:28:05.370Z,77.44
2018-11-07T08:29:05.358Z,77.34
2018-11-07T08:30:05.258Z,77.25
2018-11-07T08:31:05.198Z,77.25
2018-11-07T08:32:05.148Z,77.53
2018-11-07T08:33:05.086Z,77.62
2018-11-07T08:34:05.032Z,77.62
2018-11-07T08:35:04.969Z,77.53
2018-11-07T08:36:04.912Z,77.53
2018-11-07T08:37:04.853Z,77.53
2018-11-07T08:38:04.796Z,77.62
2018-11-07T08:39:04.739Z,77.25
2018-11-07T08:40:04.683Z,77.53
2018-11-07T08:41:04.639Z,77.72
2018-11-07T08:42:04.570Z,78.01
2018-11-07T08:43:04.511Z,78.10
2018-11-07T08:44:04.454Z,78.10
2018-11-07T08:45:04.396Z,77.53
2018-11-07T08:46:04.340Z,78.30
2018-11-07T08:47:04.282Z,77.91
2018-11-07T08:48:04.258Z,78.10
2018-11-07T08:49:04.180Z,77.62
2018-11-07T08:50:04.112Z,77.91
2018-11-07T08:51:04.054Z,78.39
2018-11-07T08:52:03.997Z,78.49
2018-11-07T08:53:03.941Z,78.49
2018-11-07T08:54:03.881Z,78.01
2018-11-07T08:55:03.888Z,78.39
2018-11-07T08:56:03.776Z,78.39
2018-11-07T08:57:03.712Z,78.58
2018-11-07T08:58:03.652Z,78.49
2018-11-07T08:59:03.596Z,78.39
2018-11-07T09:00:03.537Z,78.67
2018-11-07T09:01:03.483Z,78.58
2018-11-07T09:02:03.448Z,78.67
2018-11-07T09:03:03.370Z,78.67
2018-11-07T09:04:03.315Z,78.67
2018-11-07T09:05:03.252Z,78.86
2018-11-07T09:06:03.198Z,78.67
2018-11-07T09:07:03.138Z,78.67
2018-11-07T09:08:03.080Z,78.67
2018-11-07T09:09:03.028Z,78.86
2018-11-07T09:10:02.968Z,78.86
2018-11-07T09:11:02.909Z,78.49
2018-11-07T09:12:02.882Z,78.67
2018-11-07T09:13:02.797Z,78.86
2018-11-07T09:14:02.738Z,78.67
2018-11-07T09:15:02.682Z,78.96
2018-11-07T09:16:02.623Z,78.67
2018-11-07T09:17:02.565Z,78.58
2018-11-07T09:18:02.508Z,78.67
2018-11-07T09:19:02.450Z,78.67
2018-11-07T09:20:02.446Z,78.67
2018-11-07T09:21:02.336Z,78.86
2018-11-07T09:22:02.281Z,79.06
2018-11-07T09:23:02.220Z,79.15
2018-11-07T09:24:02.165Z,78.86
2018-11-07T09:25:02.111Z,78.96
2018-11-07T09:26:02.056Z,79.06
2018-11-07T09:27:01.997Z,78.96
2018-11-07T09:28:01.937Z,79.06
2018-11-07T09:29:01.888Z,78.86
2018-11-07T09:30:01.824Z,78.86
2018-11-07T09:31:01.767Z,78.86
2018-11-07T09:32:01.707Z,78.30
2018-11-07T09:33:01.649Z,78.77
2018-11-07T09:34:01.593Z,78.96
2018-11-07T09:35:01.538Z,79.25
2018-11-07T09:36:01.484Z,79.06
2018-11-07T09:37:01.423Z,78.86
2018-11-07T09:38:01.364Z,78.96
2018-11-07T09:39:01.307Z,78.86
2018-11-07T09:40:01.264Z,79.44
2018-11-07T09:41:01.192Z,78.96
2018-11-07T09:42:01.136Z,78.77
2018-11-07T09:43:01.078Z,78.96
2018-11-07T09:44:01.021Z,79.25
2018-11-07T09:45:00.964Z,79.06
2018-11-07T09:46:00.911Z,79.06
2018-11-07T09:47:00.850Z,78.96
2018-11-07T09:48:00.800Z,78.77
2018-11-07T09:49:00.737Z,78.77
2018-11-07T09:50:00.677Z,78.86
2018-11-07T09:51:00.621Z,78.96
2018-11-07T09:52:00.576Z,78.96
2018-11-07T09:53:00.506Z,78.77
2018-11-07T09:54:00.635Z,78.77
2018-11-07T09:55:00.400Z,79.06
2018-11-07T09:56:00.336Z,78.86
2018-11-07T09:57:00.278Z,78.77
2018-11-07T09:58:00.225Z,79.10
2018-11-07T09:59:00.168Z,79.67
2018-11-07T10:00:00.110Z,79.28
2018-11-07T10:01:00.057Z,79.06
2018-11-07T10:01:59.995Z,79.57
2018-11-07T10:02:59.944Z,78.77
2018-11-07T10:03:59.881Z,78.96
2018-11-07T10:04:59.824Z,78.86
2018-11-07T10:05:59.764Z,79.38
2018-11-07T10:06:59.712Z,79.25
2018-11-07T10:07:59.665Z,79.77
2018-11-07T10:08:59.594Z,79.86
2018-11-07T10:09:59.538Z,79.48
2018-11-07T10:10:59.479Z,79.86
2018-11-07T10:11:59.434Z,79.06
2018-11-07T10:12:59.365Z,79.28
2018-11-07T10:13:59.307Z,79.19
2018-11-07T10:14:59.252Z,78.77
2018-11-07T10:15:59.195Z,79.00
2018-11-07T10:16:59.136Z,79.10
2018-11-07T10:17:59.079Z,79.00
2018-11-07T10:18:59.026Z,79.10
2018-11-07T10:19:58.965Z,79.19
2018-11-07T10:20:58.907Z,79.00
2018-11-07T10:21:58.851Z,79.10
2018-11-07T10:22:58.794Z,79.19
2018-11-07T10:23:58.740Z,79.10
2018-11-07T10:24:58.680Z,79.19
2018-11-07T10:25:58.627Z,79.19
2018-11-07T10:26:58.639Z,79.19
2018-11-07T10:27:58.960Z,79.38
2018-11-07T10:28:58.689Z,79.38
2018-11-07T10:29:58.779Z,78.91
2018-11-07T10:30:58.339Z,79.00
2018-11-07T10:31:58.281Z,78.62
2018-11-07T10:32:58.224Z,78.72
2018-11-07T10:33:58.166Z,78.72
2018-11-07T10:34:58.112Z,78.81
2018-11-07T10:35:58.056Z,78.62
2018-11-07T10:36:57.998Z,78.91
2018-11-07T10:37:58.131Z,79.28
2018-11-07T10:38:57.960Z,79.19
2018-11-07T10:39:57.881Z,79.19
2018-11-07T10:40:57.769Z,79.38
2018-11-07T10:41:57.712Z,79.38
2018-11-07T10:42:57.655Z,79.77
2018-11-07T10:43:57.611Z,79.67
2018-11-07T10:44:57.541Z,79.28
2018-11-07T10:45:57.528Z,79.28
2018-11-07T10:46:58.292Z,79.28
2018-11-07T10:47:57.371Z,79.57
2018-11-07T10:48:57.366Z,79.38
2018-11-07T10:49:57.257Z,79.19
2018-11-07T10:50:57.199Z,79.57
2018-11-07T10:51:57.284Z,79.67
2018-11-07T10:52:57.085Z,79.28
2018-11-07T10:53:57.028Z,79.28
2018-11-07T10:54:56.973Z,79.86
2018-11-07T10:55:56.914Z,79.86
2018-11-07T10:56:56.857Z,79.28
2018-11-07T10:57:56.801Z,79.96
2018-11-07T10:58:56.744Z,79.67
2018-11-07T10:59:56.686Z,79.77
2018-11-07T11:00:56.631Z,79.67
2018-11-07T11:01:56.573Z,79.57
2018-11-07T11:02:56.517Z,79.77
2018-11-07T11:03:56.459Z,79.77
2018-11-07T11:04:56.431Z,79.77
2018-11-07T11:05:56.345Z,79.67
2018-11-07T11:06:56.290Z,79.67
2018-11-07T11:07:56.233Z,79.57
2018-11-07T11:08:56.190Z,79.77
2018-11-07T11:09:56.118Z,79.67
2018-11-07T11:10:56.061Z,79.67
2018-11-07T11:11:56.007Z,79.48
2018-11-07T11:12:55.947Z,79.67
2018-11-07T11:13:55.891Z,79.48
2018-11-07T11:14:55.834Z,79.57
2018-11-07T11:15:55.778Z,79.67
2018-11-07T11:16:55.729Z,79.48
2018-11-07T11:17:55.663Z,79.48
2018-11-07T11:18:55.607Z,79.48
2018-11-07T11:19:55.551Z,79.67
2018-11-07T11:20:55.492Z,79.71
2018-11-07T11:21:55.435Z,79.67
2018-11-07T11:22:55.381Z,79.48
2018-11-07T11:23:55.324Z,79.38
2018-11-07T11:24:55.268Z,79.28
2018-11-07T11:25:55.228Z,79.99
2018-11-07T11:26:55.152Z,79.38
2018-11-07T11:27:55.095Z,79.38
2018-11-07T11:28:55.036Z,79.43
2018-11-07T11:29:54.980Z,79.80
2018-11-07T11:30:54.925Z,80.43
2018-11-07T11:31:54.870Z,80.33
2018-11-07T11:32:54.813Z,80.57
2018-11-07T11:33:54.861Z,80.38
2018-11-07T11:34:54.770Z,79.99
2018-11-07T11:35:54.662Z,80.19
2018-11-07T11:36:54.588Z,80.09
2018-11-07T11:37:54.527Z,79.96
2018-11-07T11:38:54.472Z,80.19
2018-11-07T11:39:54.417Z,80.38
2018-11-07T11:40:54.363Z,80.19
2018-11-07T11:41:54.301Z,79.67
2018-11-07T11:42:54.242Z,79.90
2018-11-07T11:43:54.192Z,79.61
2018-11-07T11:44:54.128Z,79.90
2018-11-07T11:45:54.072Z,79.71
2018-11-07T11:46:54.014Z,79.43
2018-11-07T11:47:53.966Z,79.80
2018-11-07T11:48:53.906Z,80.09
2018-11-07T11:49:53.845Z,79.80
2018-11-07T11:50:53.791Z,79.90
2018-11-07T11:51:53.731Z,80.28
2018-11-07T11:52:53.674Z,79.80
2018-11-07T11:53:53.618Z,79.43
2018-11-07T11:54:53.562Z,79.90
2018-11-07T11:55:53.506Z,79.99
2018-11-07T11:56:53.449Z,79.43
2018-11-07T11:57:53.392Z,79.71
2018-11-07T11:58:53.458Z,79.52
2018-11-07T11:59:53.453Z,79.71
2018-11-07T12:00:53.219Z,79.71
2018-11-07T12:01:53.164Z,79.71
2018-11-07T12:02:53.107Z,79.61
2018-11-07T12:03:53.052Z,79.61
2018-11-07T12:04:52.996Z,79.61
2018-11-07T12:05:52.936Z,79.52
2018-11-07T12:06:52.882Z,79.61
2018-11-07T12:07:52.824Z,79.43
2018-11-07T12:08:52.822Z,79.71
2018-11-07T12:09:52.711Z,79.52
2018-11-07T12:10:52.653Z,79.90
2018-11-07T12:11:52.599Z,79.80
2018-11-07T12:12:52.551Z,79.71
2018-11-07T12:13:52.485Z,79.71
2018-11-07T12:14:52.428Z,79.80
2018-11-07T12:15:52.370Z,79.43
2018-11-07T12:16:52.316Z,79.43
2018-11-07T12:17:52.257Z,79.33
2018-11-07T12:18:52.199Z,79.43
2018-11-07T12:19:52.144Z,79.52
2018-11-07T12:20:52.087Z,79.71
2018-11-07T12:21:52.029Z,80.57
2018-11-07T12:22:51.972Z,80.57
2018-11-07T12:23:51.916Z,80.38
2018-11-07T12:24:51.859Z,80.09
2018-11-07T12:25:51.803Z,80.38
2018-11-07T12:26:51.772Z,80.19
2018-11-07T12:27:51.690Z,80.09
2018-11-07T12:28:51.638Z,80.09
2018-11-07T12:29:51.585Z,79.99
2018-11-07T12:30:51.524Z,80.28
2018-11-07T12:31:51.466Z,79.90
2018-11-07T12:32:51.405Z,80.09
2018-11-07T12:33:51.349Z,79.90
2018-11-07T12:34:51.294Z,80.09
2018-11-07T12:35:51.240Z,79.99
2018-11-07T12:36:51.179Z,79.90
2018-11-07T12:37:51.124Z,79.90
2018-11-07T12:38:51.067Z,79.99
2018-11-07T12:39:51.011Z,80.19
2018-11-07T12:40:50.953Z,80.57
2018-11-07T12:41:50.897Z,80.76
2018-11-07T12:42:50.897Z,80.09
2018-11-07T12:43:50.786Z,79.99
2018-11-07T12:44:50.726Z,79.99
2018-11-07T12:45:50.670Z,79.90
2018-11-07T12:46:50.617Z,80.09
2018-11-07T12:47:50.558Z,79.90
2018-11-07T12:48:50.504Z,80.09
2018-11-07T12:49:50.474Z,79.99
2018-11-07T12:50:50.391Z,80.09
2018-11-07T12:51:50.331Z,80.09